createdAt,value
2023-04-25T00:03:47.262Z,100.00
2023-04-25T00:08:50.458Z,100.00
2023-04-25T00:13:53.549Z,100.00
2023-04-25T00:18:57.784Z,100.00
2023-04-25T00:24:00.820Z,100.00
2023-04-25T00:29:03.595Z,100.00
2023-04-25T00:34:09.132Z,100.00
2023-04-25T00:39:12.190Z,100.00
2023-04-25T00:44:15.241Z,100.00
2023-04-25T00:49:19.522Z,100.00
2023-04-25T00:54:22.723Z,100.00
2023-04-25T00:59:26.204Z,100.00
2023-04-25T01:04:30.747Z,100.00
2023-04-25T01:09:33.858Z,100.00
2023-04-25T01:14:36.798Z,100.00
2023-04-25T01:19:43.980Z,100.00
2023-04-25T01:24:48.322Z,100.00
2023-04-25T01:29:52.276Z,100.00
2023-04-25T01:34:55.517Z,100.00
2023-04-25T01:39:59.716Z,100.00
2023-04-25T01:45:03.148Z,100.00
2023-04-25T01:50:07.333Z,100.00
2023-04-25T01:55:12.569Z,100.00
2023-04-25T02:00:21.879Z,100.00
2023-04-25T02:05:24.988Z,100.00
2023-04-25T02:10:30.027Z,100.00
2023-04-25T02:15:54.640Z,100.00
2023-04-25T02:20:57.630Z,100.00
2023-04-25T02:26:01.994Z,100.00
2023-04-25T02:31:05.081Z,100.00
2023-04-25T02:36:08.656Z,100.00
2023-04-25T02:41:12.773Z,100.00
2023-04-25T02:46:22.941Z,100.00
2023-04-25T02:51:32.092Z,100.00
2023-04-25T02:56:36.267Z,100.00
2023-04-25T03:01:39.988Z,100.00
2023-04-25T03:06:42.821Z,100.00
2023-04-25T03:11:47.824Z,100.00
2023-04-25T03:16:50.742Z,100.00
2023-04-25T03:21:54.619Z,100.00
2023-04-25T03:26:58.894Z,100.00
2023-04-25T03:32:01.678Z,100.00
2023-04-25T03:37:04.834Z,100.00
2023-04-25T03:42:13.563Z,100.00
2023-04-25T03:47:16.515Z,100.00
2023-04-25T03:52:19.636Z,100.00
2023-04-25T03:57:25.263Z,100.00
2023-04-25T04:02:30.092Z,100.00
2023-04-25T04:07:37.947Z,100.00
2023-04-25T04:12:42.355Z,100.00
2023-04-25T04:17:45.504Z,100.00
2023-04-25T04:22:48.718Z,100.00
2023-04-25T04:27:55.588Z,100.00
2023-04-25T04:33:05.523Z,100.00
2023-04-25T04:38:09.099Z,100.00
2023-04-25T04:43:18.060Z,100.00
2023-04-25T04:48:41.079Z,100.00
2023-04-25T04:54:21.498Z,100.00
2023-04-25T04:59:57.463Z,100.00
2023-04-25T05:05:20.066Z,100.00
2023-04-25T05:10:35.390Z,100.00
2023-04-25T05:15:57.176Z,100.00
2023-04-25T05:21:26.331Z,100.00
2023-04-25T05:26:52.330Z,100.00
2023-04-25T05:31:57.856Z,100.00
2023-04-25T05:37:02.303Z,100.00
2023-04-25T05:42:06.505Z,100.00
2023-04-25T05:47:40.912Z,100.00
2023-04-25T05:52:50.027Z,100.00
2023-04-25T05:58:09.478Z,100.00
2023-04-25T06:03:17.193Z,100.00
2023-04-25T06:08:22.553Z,100.00
2023-04-25T06:13:25.469Z,100.00
2023-04-25T06:18:30.106Z,100.00
2023-04-25T06:23:34.529Z,100.00
2023-04-25T06:28:43.171Z,100.00
2023-04-25T06:33:50.654Z,100.00
2023-04-25T06:38:54.396Z,100.00
2023-04-25T06:43:59.390Z,100.00
2023-04-25T06:49:11.185Z,100.00
2023-04-25T06:54:14.696Z,100.00
2023-04-25T06:59:27.165Z,100.00
2023-04-25T07:04:32.063Z,100.00
2023-04-25T07:09:35.537Z,100.00
2023-04-25T07:14:40.238Z,100.00
2023-04-25T07:19:46.662Z,100.00
2023-04-25T07:24:50.210Z,100.00
2023-04-25T07:29:56.843Z,100.00
2023-04-25T07:35:02.726Z,100.00
2023-04-25T07:40:08.192Z,100.00
2023-04-25T07:45:14.500Z,100.00
2023-04-25T07:50:18.734Z,100.00
2023-04-25T07:55:24.915Z,100.00
2023-04-25T08:00:50.867Z,100.00
2023-04-25T08:06:13.482Z,98.23
2023-04-25T08:11:26.172Z,97.66
2023-04-25T08:16:29.277Z,97.33
2023-04-25T08:21:36.101Z,91.75
2023-04-25T08:26:43.214Z,91.93
2023-04-25T08:31:51.717Z,92.26
2023-04-25T08:36:56.277Z,92.29
2023-04-25T08:42:11.911Z,90.79
2023-04-25T08:47:16.961Z,85.08
2023-04-25T08:52:34.561Z,86.88
2023-04-25T08:57:38.990Z,89.14
2023-04-25T09:02:44.300Z,87.91
2023-04-25T09:07:50.671Z,85.55
2023-04-25T09:13:07.882Z,77.82
2023-04-25T09:18:29.867Z,78.09
2023-04-25T09:23:41.830Z,79.17
2023-04-25T09:28:47.759Z,80.38
2023-04-25T09:34:01.647Z,77.77
2023-04-25T09:39:19.308Z,77.62
2023-04-25T09:44:30.094Z,76.09
2023-04-25T09:49:35.684Z,74.05
2023-04-25T09:54:44.061Z,75.62
2023-04-25T09:59:52.385Z,78.37
2023-04-25T10:04:59.164Z,75.40
2023-04-25T10:10:08.082Z,77.06
2023-04-25T10:15:11.964Z,73.51
2023-04-25T10:20:15.416Z,74.65
2023-04-25T10:25:20.549Z,72.66
2023-04-25T10:30:23.231Z,72.33
2023-04-25T10:35:28.638Z,66.22
2023-04-25T10:40:33.286Z,65.49
2023-04-25T10:45:53.561Z,61.34
2023-04-25T10:51:09.877Z,63.70
2023-04-25T10:56:19.242Z,66.49
2023-04-25T11:01:26.844Z,68.88
2023-04-25T11:06:42.310Z,68.09
2023-04-25T11:11:56.059Z,71.54
2023-04-25T11:17:00.848Z,71.24
2023-04-25T11:22:06.185Z,70.49
2023-04-25T11:27:10.517Z,69.42
2023-04-25T11:32:14.401Z,65.38
2023-04-25T11:37:19.209Z,63.95
2023-04-25T11:42:23.406Z,62.91
2023-04-25T11:47:30.787Z,61.16
2023-04-25T11:52:40.114Z,62.18
2023-04-25T11:57:47.693Z,58.40
2023-04-25T12:02:54.011Z,57.70
2023-04-25T12:07:57.393Z,56.55
2023-04-25T12:13:02.430Z,55.16
2023-04-25T12:18:08.749Z,55.47
2023-04-25T12:23:12.555Z,56.62
2023-04-25T12:28:20.488Z,57.41
2023-04-25T12:33:23.574Z,57.98
2023-04-25T12:38:28.562Z,57.75
2023-04-25T12:43:34.344Z,57.02
2023-04-25T12:48:39.314Z,51.68
2023-04-25T12:53:42.653Z,49.95
2023-04-25T12:58:46.761Z,48.07
2023-04-25T13:03:51.883Z,49.33
2023-04-25T13:08:55.505Z,51.65
2023-04-25T13:14:01.442Z,54.08
2023-04-25T13:19:07.200Z,56.54
2023-04-25T13:24:11.624Z,58.29
2023-04-25T13:29:17.432Z,61.47
2023-04-25T13:34:20.535Z,62.94
2023-04-25T13:39:24.780Z,65.53
2023-04-25T13:44:30.678Z,65.17
2023-04-25T13:49:33.506Z,62.14
2023-04-25T13:54:37.044Z,59.98
2023-04-25T13:59:42.524Z,57.02
2023-04-25T14:04:46.249Z,56.32
2023-04-25T14:09:50.875Z,53.15
2023-04-25T14:14:54.963Z,50.64
2023-04-25T14:20:00.125Z,51.46
2023-04-25T14:25:03.127Z,49.10
2023-04-25T14:30:10.189Z,48.65
2023-04-25T14:35:12.968Z,44.33
2023-04-25T14:40:16.734Z,45.91
2023-04-25T14:45:21.513Z,47.12
2023-04-25T14:50:24.463Z,48.68
2023-04-25T14:55:29.610Z,50.63
2023-04-25T15:00:34.019Z,51.48
2023-04-25T15:05:40.284Z,52.46
2023-04-25T15:10:43.091Z,53.22
2023-04-25T15:15:52.499Z,54.44
2023-04-25T15:20:56.014Z,52.34
2023-04-25T15:26:00.551Z,52.92
2023-04-25T15:31:04.692Z,50.93
2023-04-25T15:36:08.073Z,52.12
2023-04-25T15:41:13.086Z,52.47
2023-04-25T15:46:17.618Z,52.19
2023-04-25T15:51:22.956Z,53.02
2023-04-25T15:56:26.639Z,52.36
2023-04-25T16:01:32.438Z,49.58
2023-04-25T16:06:37.437Z,47.18
2023-04-25T16:11:40.199Z,43.36
2023-04-25T16:16:45.048Z,43.68
2023-04-25T16:21:47.916Z,43.86
2023-04-25T16:26:50.729Z,45.74
2023-04-25T16:31:55.002Z,43.53
2023-04-25T16:36:58.876Z,32.17
2023-04-25T16:42:04.104Z,30.70
2023-04-25T16:47:08.942Z,35.71
2023-04-25T16:52:11.904Z,41.84
2023-04-25T16:57:16.158Z,46.07
2023-04-25T17:02:20.451Z,48.45
2023-04-25T17:07:24.687Z,50.77
2023-04-25T17:12:28.701Z,52.16
2023-04-25T17:17:32.912Z,54.76
2023-04-25T17:22:37.139Z,56.42
2023-04-25T17:27:39.866Z,54.96
2023-04-25T17:32:44.765Z,56.05
2023-04-25T17:37:48.542Z,56.89
2023-04-25T17:42:51.350Z,57.80
2023-04-25T17:47:56.451Z,57.83
2023-04-25T17:53:01.677Z,59.32
2023-04-25T17:58:05.394Z,61.06
2023-04-25T18:03:09.634Z,63.36
2023-04-25T18:08:12.513Z,64.14
2023-04-25T18:13:15.616Z,66.30
2023-04-25T18:18:25.704Z,67.89
2023-04-25T18:23:29.948Z,69.48
2023-04-25T18:28:34.328Z,72.55
2023-04-25T18:33:38.899Z,74.89
2023-04-25T18:38:41.636Z,76.23
2023-04-25T18:43:44.745Z,79.48
2023-04-25T18:48:49.007Z,80.21
2023-04-25T18:53:52.714Z,80.20
2023-04-25T18:58:57.577Z,80.21
2023-04-25T19:04:05.168Z,86.15
2023-04-25T19:09:10.239Z,86.24
2023-04-25T19:14:14.807Z,86.82
2023-04-25T19:19:22.695Z,89.77
2023-04-25T19:24:25.514Z,93.07
2023-04-25T19:29:31.741Z,89.78
2023-04-25T19:34:36.580Z,98.07
2023-04-25T19:39:39.319Z,100.00
2023-04-25T19:44:42.289Z,97.43
2023-04-25T19:49:47.161Z,95.54
2023-04-25T19:54:49.848Z,96.33
2023-04-25T19:59:53.960Z,96.42
2023-04-25T20:04:58.081Z,94.55
2023-04-25T20:10:01.737Z,93.58
2023-04-25T20:15:07.284Z,95.77
2023-04-25T20:20:13.362Z,95.59
2023-04-25T20:25:16.796Z,94.86
2023-04-25T20:30:19.780Z,95.15
2023-04-25T20:35:24.405Z,95.14
2023-04-25T20:40:27.868Z,95.80
2023-04-25T20:45:32.232Z,95.43
2023-04-25T20:50:36.730Z,95.42
2023-04-25T20:55:41.738Z,98.33
2023-04-25T21:00:47.409Z,98.84
2023-04-25T21:05:51.912Z,99.98
2023-04-25T21:10:54.854Z,100.00
2023-04-25T21:15:58.038Z,100.00
2023-04-25T21:21:04.246Z,100.00
2023-04-25T21:26:07.854Z,100.00
2023-04-25T21:31:10.778Z,100.00
2023-04-25T21:36:15.008Z,100.00
2023-04-25T21:41:18.616Z,100.00
2023-04-25T21:46:23.740Z,100.00
2023-04-25T21:51:28.809Z,100.00
2023-04-25T21:56:31.850Z,100.00
2023-04-25T22:01:34.605Z,100.00
2023-04-25T22:06:38.930Z,100.00
2023-04-25T22:11:42.975Z,100.00
2023-04-25T22:16:45.849Z,100.00
2023-04-25T22:21:50.120Z,100.00
2023-04-25T22:26:52.955Z,100.00
2023-04-25T22:31:55.958Z,100.00
2023-04-25T22:37:00.137Z,100.00
2023-04-25T22:42:04.117Z,100.00
2023-04-25T22:47:06.795Z,100.00
2023-04-25T22:52:12.135Z,100.00
2023-04-25T22:57:15.386Z,100.00
2023-04-25T23:02:18.421Z,100.00
2023-04-25T23:07:23.494Z,100.00
2023-04-25T23:12:26.330Z,100.00
2023-04-25T23:17:29.292Z,100.00
2023-04-25T23:22:33.394Z,100.00
2023-04-25T23:27:37.004Z,100.00
2023-04-25T23:32:39.872Z,100.00
2023-04-25T23:37:43.987Z,100.00
2023-04-25T23:42:46.771Z,100.00
2023-04-25T23:47:49.528Z,100.00
2023-04-25T23:52:53.661Z,100.00
2023-04-25T23:57:56.359Z,100.00
